createdAt,value
2023-12-30T00:00:18.689Z,6.15
2023-12-30T00:03:05.425Z,6.20
2023-12-30T00:05:50.830Z,6.27
2023-12-30T00:08:36.037Z,6.18
2023-12-30T00:11:20.947Z,6.24
2023-12-30T00:14:06.098Z,6.34
2023-12-30T00:16:51.267Z,6.35
2023-12-30T00:19:36.257Z,6.19
2023-12-30T00:22:21.703Z,6.22
2023-12-30T00:25:07.218Z,6.21
2023-12-30T00:27:52.332Z,6.21
2023-12-30T00:30:37.190Z,6.25
2023-12-30T00:33:22.221Z,6.40
2023-12-30T00:36:07.923Z,6.37
2023-12-30T00:38:53.635Z,6.25
2023-12-30T00:41:39.017Z,6.01
2023-12-30T00:44:24.045Z,5.98
2023-12-30T00:47:09.089Z,5.91
2023-12-30T00:49:53.987Z,5.87
2023-12-30T00:52:39.321Z,5.79
2023-12-30T00:55:24.557Z,5.69
2023-12-30T00:58:09.802Z,5.72
2023-12-30T01:00:54.851Z,5.64
2023-12-30T01:03:40.589Z,5.62
2023-12-30T01:06:26.036Z,5.57
2023-12-30T01:09:11.053Z,5.60
2023-12-30T01:11:55.906Z,5.63
2023-12-30T01:14:40.849Z,5.70
2023-12-30T01:17:25.754Z,5.73
2023-12-30T01:20:12.250Z,5.76
2023-12-30T01:22:57.769Z,5.80
2023-12-30T01:25:43.024Z,6.01
2023-12-30T01:28:27.977Z,5.95
2023-12-30T01:31:12.867Z,6.10
2023-12-30T01:33:57.948Z,6.18
2023-12-30T01:36:43.130Z,6.32
2023-12-30T01:39:28.211Z,6.18
2023-12-30T01:42:13.058Z,6.29
2023-12-30T01:44:58.050Z,6.21
2023-12-30T01:47:43.090Z,6.22
2023-12-30T01:50:28.048Z,6.21
2023-12-30T01:53:13.099Z,6.10
2023-12-30T01:55:58.678Z,6.15
2023-12-30T01:58:44.226Z,6.13
2023-12-30T02:01:29.677Z,6.12
2023-12-30T02:04:14.780Z,6.12
2023-12-30T02:07:00.198Z,6.16
2023-12-30T02:09:45.020Z,6.31
2023-12-30T02:12:30.027Z,6.24
2023-12-30T02:15:16.596Z,6.24
2023-12-30T02:18:01.634Z,6.25
2023-12-30T02:20:46.576Z,6.33
2023-12-30T02:23:32.076Z,6.36
2023-12-30T02:26:17.305Z,6.33
2023-12-30T02:29:02.256Z,6.25
2023-12-30T02:31:47.966Z,6.29
2023-12-30T02:34:33.332Z,6.27
2023-12-30T02:37:18.586Z,6.19
2023-12-30T02:40:03.868Z,6.23
2023-12-30T02:42:49.004Z,6.28
2023-12-30T02:45:33.994Z,6.25
2023-12-30T02:48:19.097Z,6.32
2023-12-30T02:51:04.525Z,6.19
2023-12-30T02:53:49.364Z,6.17
2023-12-30T02:56:34.321Z,6.14
2023-12-30T02:59:19.423Z,6.15
2023-12-30T03:02:04.689Z,6.13
2023-12-30T03:04:49.959Z,6.10
2023-12-30T03:07:35.130Z,6.13
2023-12-30T03:10:20.062Z,6.13
2023-12-30T03:13:05.563Z,6.18
2023-12-30T03:15:50.923Z,6.13
2023-12-30T03:18:36.575Z,6.12
2023-12-30T03:21:21.876Z,6.04
2023-12-30T03:24:07.052Z,6.10
2023-12-30T03:26:52.203Z,6.13
2023-12-30T03:29:37.040Z,6.07
2023-12-30T03:32:21.882Z,6.12
2023-12-30T03:35:07.057Z,6.10
2023-12-30T03:37:52.217Z,6.12
2023-12-30T03:40:37.104Z,5.99
2023-12-30T03:43:21.995Z,6.04
2023-12-30T03:46:06.846Z,5.99
2023-12-30T03:48:52.428Z,6.02
2023-12-30T03:51:37.595Z,6.05
2023-12-30T03:54:22.612Z,6.10
2023-12-30T03:57:07.529Z,6.09
2023-12-30T03:59:52.646Z,6.14
2023-12-30T04:02:37.924Z,6.18
2023-12-30T04:05:22.773Z,6.20
2023-12-30T04:08:07.827Z,6.24
2023-12-30T04:10:53.431Z,6.29
2023-12-30T04:13:38.615Z,6.32
2023-12-30T04:16:23.524Z,6.34
2023-12-30T04:19:08.528Z,6.40
2023-12-30T04:21:53.923Z,6.43
2023-12-30T04:24:38.696Z,6.53
2023-12-30T04:27:23.855Z,6.57
2023-12-30T04:30:09.257Z,6.54
2023-12-30T04:32:54.426Z,6.54
2023-12-30T04:35:39.715Z,6.64
2023-12-30T04:38:24.701Z,6.65
2023-12-30T04:41:10.181Z,6.64
2023-12-30T04:43:55.088Z,6.72
2023-12-30T04:46:40.053Z,6.71
2023-12-30T04:49:25.051Z,6.74
2023-12-30T04:52:10.490Z,6.84
2023-12-30T04:54:55.320Z,6.88
2023-12-30T04:57:40.186Z,6.85
2023-12-30T05:00:25.176Z,6.90
2023-12-30T05:03:10.476Z,6.83
2023-12-30T05:05:56.027Z,6.91
2023-12-30T05:08:40.899Z,6.90
2023-12-30T05:11:25.774Z,6.88
2023-12-30T05:14:11.436Z,6.90
2023-12-30T05:16:56.648Z,6.88
2023-12-30T05:19:41.478Z,6.88
2023-12-30T05:22:26.348Z,6.88
2023-12-30T05:25:11.475Z,6.81
2023-12-30T05:27:56.755Z,6.78
2023-12-30T05:30:41.764Z,6.83
2023-12-30T05:33:26.668Z,6.85
2023-12-30T05:36:11.543Z,6.79
2023-12-30T05:38:56.356Z,6.74
2023-12-30T05:41:41.364Z,6.88
2023-12-30T05:44:26.617Z,6.87
2023-12-30T05:47:11.624Z,6.88
2023-12-30T05:49:56.707Z,6.90
2023-12-30T05:52:42.005Z,6.89
2023-12-30T05:55:26.925Z,6.85
2023-12-30T05:58:12.333Z,6.94
2023-12-30T06:00:57.651Z,6.94
2023-12-30T06:03:42.985Z,6.98
2023-12-30T06:06:29.787Z,6.93
2023-12-30T06:09:15.621Z,6.97
2023-12-30T06:12:00.641Z,6.88
2023-12-30T06:14:45.586Z,6.88
2023-12-30T06:17:30.747Z,6.89
2023-12-30T06:20:15.799Z,6.88
2023-12-30T06:23:01.020Z,6.82
2023-12-30T06:25:46.141Z,6.89
2023-12-30T06:28:31.708Z,6.84
2023-12-30T06:31:16.946Z,6.80
2023-12-30T06:34:02.290Z,6.87
2023-12-30T06:36:47.821Z,6.85
2023-12-30T06:39:32.685Z,6.72
2023-12-30T06:42:17.643Z,6.76
2023-12-30T06:45:02.516Z,6.78
2023-12-30T06:47:47.488Z,6.78
2023-12-30T06:50:32.389Z,6.82
2023-12-30T06:53:17.227Z,6.70
2023-12-30T06:56:02.707Z,6.66
2023-12-30T06:58:47.688Z,6.72
2023-12-30T07:01:32.807Z,6.66
2023-12-30T07:04:17.958Z,6.70
2023-12-30T07:07:02.996Z,6.68
2023-12-30T07:09:47.830Z,6.64
2023-12-30T07:12:33.092Z,6.72
2023-12-30T07:15:18.273Z,6.73
2023-12-30T07:18:04.124Z,6.65
2023-12-30T07:20:49.605Z,6.60
2023-12-30T07:23:34.507Z,6.67
2023-12-30T07:26:20.869Z,6.65
2023-12-30T07:29:06.150Z,6.65
2023-12-30T07:31:51.098Z,6.58
2023-12-30T07:34:36.154Z,6.60
2023-12-30T07:37:21.244Z,6.60
2023-12-30T07:40:07.466Z,6.61
2023-12-30T07:42:52.467Z,6.59
2023-12-30T07:45:37.472Z,6.63
2023-12-30T07:48:22.653Z,6.56
2023-12-30T07:51:08.034Z,6.52
2023-12-30T07:53:53.512Z,6.56
2023-12-30T07:56:38.246Z,6.54
2023-12-30T07:59:23.213Z,6.58
2023-12-30T08:02:08.190Z,6.60
2023-12-30T08:04:54.037Z,6.58
2023-12-30T08:07:39.051Z,6.59
2023-12-30T08:10:24.312Z,6.69
2023-12-30T08:13:09.413Z,6.65
2023-12-30T08:15:54.748Z,6.63
2023-12-30T08:18:39.674Z,6.56
2023-12-30T08:21:25.022Z,6.62
2023-12-30T08:24:10.484Z,6.63
2023-12-30T08:26:55.553Z,6.63
2023-12-30T08:29:40.594Z,6.59
2023-12-30T08:32:25.849Z,6.68
2023-12-30T08:35:10.673Z,6.76
2023-12-30T08:37:55.610Z,6.71
2023-12-30T08:40:40.493Z,6.73
2023-12-30T08:43:25.973Z,6.72
2023-12-30T08:46:11.252Z,6.78
2023-12-30T08:48:56.264Z,6.73
2023-12-30T08:51:41.237Z,6.74
2023-12-30T08:54:26.096Z,6.84
2023-12-30T08:57:11.031Z,6.85
2023-12-30T08:59:56.519Z,6.90
2023-12-30T09:02:41.588Z,6.95
2023-12-30T09:05:26.498Z,6.98
2023-12-30T09:08:11.897Z,7.03
2023-12-30T09:10:56.868Z,7.08
2023-12-30T09:13:41.935Z,7.11
2023-12-30T09:16:27.432Z,7.12
2023-12-30T09:19:12.840Z,7.12
2023-12-30T09:21:58.185Z,7.08
2023-12-30T09:24:43.057Z,7.14
2023-12-30T09:27:27.888Z,7.14
2023-12-30T09:30:13.355Z,7.13
2023-12-30T09:32:58.711Z,7.16
2023-12-30T09:35:44.069Z,7.16
2023-12-30T09:38:29.027Z,7.24
2023-12-30T09:41:14.697Z,7.27
2023-12-30T09:44:00.205Z,7.30
2023-12-30T09:46:46.024Z,7.34
2023-12-30T09:49:31.461Z,7.41
2023-12-30T09:52:16.589Z,7.44
2023-12-30T09:55:01.795Z,7.47
2023-12-30T09:57:47.217Z,7.49
2023-12-30T10:00:32.473Z,7.51
2023-12-30T10:03:17.765Z,7.55
2023-12-30T10:06:05.405Z,7.61
2023-12-30T10:08:50.748Z,7.48
2023-12-30T10:11:37.161Z,7.51
2023-12-30T10:14:22.202Z,7.56
2023-12-30T10:17:07.288Z,7.56
2023-12-30T10:19:52.238Z,7.57
2023-12-30T10:22:37.288Z,7.74
2023-12-30T10:25:22.365Z,7.84
2023-12-30T10:28:07.314Z,7.81
2023-12-30T10:31:01.854Z,7.85
2023-12-30T10:33:48.641Z,7.84
2023-12-30T10:36:34.259Z,7.96
2023-12-30T10:39:22.750Z,7.95
2023-12-30T10:42:07.855Z,8.03
2023-12-30T10:44:52.694Z,8.06
2023-12-30T10:47:41.111Z,7.99
2023-12-30T10:50:27.046Z,7.92
2023-12-30T10:53:20.394Z,7.96
2023-12-30T10:56:07.330Z,7.90
2023-12-30T10:58:55.146Z,7.94
2023-12-30T11:01:41.634Z,8.05
2023-12-30T11:04:27.444Z,8.00
2023-12-30T11:07:16.113Z,8.05
2023-12-30T11:10:01.343Z,7.91
2023-12-30T11:12:46.216Z,8.00
2023-12-30T11:15:31.811Z,7.95
2023-12-30T11:18:45.042Z,8.06
2023-12-30T11:21:42.040Z,8.17
2023-12-30T11:24:27.628Z,8.16
2023-12-30T11:27:12.980Z,8.20
2023-12-30T11:29:58.452Z,8.19
2023-12-30T11:32:45.119Z,8.17
2023-12-30T11:35:30.582Z,8.28
2023-12-30T11:38:18.578Z,8.28
2023-12-30T11:41:03.877Z,8.36
2023-12-30T11:43:49.489Z,8.41
2023-12-30T11:46:35.243Z,8.37
2023-12-30T11:49:21.246Z,8.31
2023-12-30T11:52:06.695Z,8.34
2023-12-30T11:54:51.731Z,8.56
2023-12-30T11:57:37.532Z,8.58
2023-12-30T12:00:25.262Z,8.55
2023-12-30T12:03:11.274Z,8.48
2023-12-30T12:05:56.418Z,8.49
2023-12-30T12:08:42.707Z,8.50
2023-12-30T12:11:29.236Z,8.68
2023-12-30T12:14:14.648Z,8.59
2023-12-30T12:17:04.568Z,8.47
2023-12-30T12:19:49.863Z,8.51
2023-12-30T12:22:35.047Z,8.49
2023-12-30T12:25:20.187Z,8.39
2023-12-30T12:28:13.014Z,8.45
2023-12-30T12:31:02.075Z,8.44
2023-12-30T12:33:47.104Z,8.46
2023-12-30T12:36:32.412Z,8.47
2023-12-30T12:39:17.959Z,8.51
2023-12-30T12:42:14.624Z,8.48
2023-12-30T12:45:08.385Z,8.55
2023-12-30T12:47:53.611Z,8.46
2023-12-30T12:50:38.572Z,8.45
2023-12-30T12:53:23.814Z,8.65
2023-12-30T12:56:09.006Z,8.61
2023-12-30T12:58:54.518Z,8.56
2023-12-30T13:01:39.603Z,8.58
2023-12-30T13:04:24.961Z,8.57
2023-12-30T13:07:10.010Z,8.57
2023-12-30T13:09:55.528Z,8.48
2023-12-30T13:12:40.772Z,8.52
2023-12-30T13:15:25.874Z,8.54
2023-12-30T13:18:11.312Z,8.59
2023-12-30T13:20:56.576Z,8.65
2023-12-30T13:23:41.571Z,8.62
2023-12-30T13:26:26.668Z,8.62
2023-12-30T13:29:12.323Z,8.66
2023-12-30T13:31:57.356Z,8.68
2023-12-30T13:34:42.311Z,8.65
2023-12-30T13:37:27.190Z,8.66
2023-12-30T13:40:12.800Z,8.65
2023-12-30T13:42:58.183Z,8.63
2023-12-30T13:45:44.211Z,8.62
2023-12-30T13:48:29.168Z,8.68
2023-12-30T13:51:14.041Z,8.73
2023-12-30T13:53:59.376Z,8.65
2023-12-30T13:56:44.309Z,8.63
2023-12-30T13:59:29.738Z,8.72
2023-12-30T14:02:14.790Z,8.68
2023-12-30T14:05:00.600Z,8.64
2023-12-30T14:07:46.011Z,8.75
2023-12-30T14:10:30.918Z,8.72
2023-12-30T14:13:17.898Z,8.71
2023-12-30T14:16:03.342Z,8.70
2023-12-30T14:18:48.618Z,8.78
2023-12-30T14:21:34.611Z,8.71
2023-12-30T14:24:20.711Z,8.75
2023-12-30T14:27:06.323Z,8.83
2023-12-30T14:29:51.820Z,8.71
2023-12-30T14:32:37.128Z,8.73
2023-12-30T14:35:22.412Z,8.74
2023-12-30T14:38:07.487Z,8.77
2023-12-30T14:40:52.443Z,8.74
2023-12-30T14:43:37.236Z,8.84
2023-12-30T14:46:22.146Z,8.82
2023-12-30T14:49:07.021Z,8.80
2023-12-30T14:51:52.997Z,8.87
2023-12-30T14:54:38.234Z,8.86
2023-12-30T14:57:23.222Z,8.87
2023-12-30T15:00:09.595Z,8.86
2023-12-30T15:02:54.390Z,8.89
2023-12-30T15:05:39.422Z,8.87
2023-12-30T15:08:24.220Z,8.87
2023-12-30T15:11:09.194Z,8.93
2023-12-30T15:13:56.097Z,8.86
2023-12-30T15:16:41.436Z,8.86
2023-12-30T15:19:26.997Z,8.75
2023-12-30T15:22:11.905Z,8.81
2023-12-30T15:24:56.893Z,8.86
2023-12-30T15:27:41.784Z,8.84
2023-12-30T15:30:26.570Z,8.78
2023-12-30T15:33:12.204Z,8.76
2023-12-30T15:35:57.566Z,8.73
2023-12-30T15:38:42.530Z,8.68
2023-12-30T15:41:27.375Z,8.70
2023-12-30T15:44:12.405Z,8.70
2023-12-30T15:46:57.792Z,8.71
2023-12-30T15:49:42.917Z,8.76
2023-12-30T15:52:28.373Z,8.62
2023-12-30T15:55:13.433Z,8.63
2023-12-30T15:57:58.875Z,8.43
2023-12-30T16:00:43.836Z,8.25
2023-12-30T16:03:28.765Z,8.34
2023-12-30T16:06:14.194Z,8.30
2023-12-30T16:08:59.227Z,8.31
2023-12-30T16:11:44.266Z,8.36
2023-12-30T16:14:29.006Z,8.26
2023-12-30T16:17:14.413Z,8.25
2023-12-30T16:20:00.486Z,8.20
2023-12-30T16:22:45.822Z,8.23
2023-12-30T16:25:31.465Z,8.22
2023-12-30T16:28:16.863Z,8.29
2023-12-30T16:31:01.993Z,8.30
2023-12-30T16:33:47.844Z,8.35
2023-12-30T16:36:35.147Z,8.44
2023-12-30T16:39:20.406Z,8.52
2023-12-30T16:42:05.351Z,8.45
2023-12-30T16:44:50.564Z,8.52
2023-12-30T16:47:35.428Z,8.49
2023-12-30T16:50:20.322Z,8.53
2023-12-30T16:53:05.736Z,8.45
2023-12-30T16:55:51.290Z,8.39
2023-12-30T16:58:36.326Z,8.25
2023-12-30T17:01:21.856Z,8.20
2023-12-30T17:04:07.281Z,8.19
2023-12-30T17:06:51.989Z,8.11
2023-12-30T17:09:36.931Z,8.12
2023-12-30T17:12:21.699Z,8.15
2023-12-30T17:15:06.992Z,8.02
2023-12-30T17:17:52.314Z,8.02
2023-12-30T17:20:37.619Z,8.03
2023-12-30T17:23:22.581Z,7.95
2023-12-30T17:26:07.589Z,8.13
2023-12-30T17:28:52.493Z,8.08
2023-12-30T17:31:37.480Z,8.00
2023-12-30T17:34:23.320Z,7.95
2023-12-30T17:37:08.536Z,7.96
2023-12-30T17:39:54.107Z,7.95
2023-12-30T17:42:39.037Z,7.96
2023-12-30T17:45:23.767Z,8.01
2023-12-30T17:48:08.939Z,8.01
2023-12-30T17:50:54.131Z,7.93
2023-12-30T17:53:39.243Z,7.86
2023-12-30T17:56:24.201Z,7.81
2023-12-30T17:59:09.214Z,7.83
2023-12-30T18:01:54.384Z,7.84
2023-12-30T18:04:39.629Z,7.85
2023-12-30T18:07:24.748Z,7.92
2023-12-30T18:10:09.644Z,7.91
2023-12-30T18:12:54.524Z,7.92
2023-12-30T18:15:39.437Z,8.03
2023-12-30T18:18:24.659Z,7.96
2023-12-30T18:21:10.248Z,7.95
2023-12-30T18:23:55.064Z,7.88
2023-12-30T18:26:39.949Z,7.89
2023-12-30T18:29:24.841Z,7.93
2023-12-30T18:32:09.843Z,7.90
2023-12-30T18:34:54.756Z,7.98
2023-12-30T18:37:39.645Z,7.89
2023-12-30T18:40:24.358Z,7.88
2023-12-30T18:43:09.294Z,7.79
2023-12-30T18:45:54.636Z,7.80
2023-12-30T18:48:39.535Z,7.70
2023-12-30T18:51:24.925Z,7.67
2023-12-30T18:54:09.815Z,7.56
2023-12-30T18:56:54.790Z,7.49
2023-12-30T18:59:39.641Z,7.54
2023-12-30T19:02:24.582Z,7.49
2023-12-30T19:05:10.317Z,7.50
2023-12-30T19:07:55.676Z,7.35
2023-12-30T19:10:40.710Z,7.39
2023-12-30T19:13:25.471Z,7.30
2023-12-30T19:16:10.579Z,7.30
2023-12-30T19:18:55.634Z,7.22
2023-12-30T19:21:41.033Z,7.23
2023-12-30T19:24:25.928Z,7.16
2023-12-30T19:27:10.869Z,7.29
2023-12-30T19:29:55.955Z,7.25
2023-12-30T19:32:40.899Z,7.24
2023-12-30T19:35:26.377Z,7.28
2023-12-30T19:38:11.841Z,7.16
2023-12-30T19:40:56.950Z,6.98
2023-12-30T19:43:42.015Z,6.97
2023-12-30T19:46:27.423Z,6.99
2023-12-30T19:49:13.032Z,7.10
2023-12-30T19:51:58.242Z,7.00
2023-12-30T19:54:43.188Z,7.09
2023-12-30T19:57:27.946Z,6.98
2023-12-30T20:00:13.505Z,6.87
2023-12-30T20:02:58.590Z,6.88
2023-12-30T20:05:43.348Z,6.93
2023-12-30T20:08:28.379Z,6.87
2023-12-30T20:11:13.223Z,6.88
2023-12-30T20:13:58.152Z,6.85
2023-12-30T20:16:43.183Z,6.89
2023-12-30T20:19:28.720Z,6.93
2023-12-30T20:22:13.848Z,6.95
2023-12-30T20:24:58.645Z,7.04
2023-12-30T20:27:43.529Z,7.02
2023-12-30T20:30:28.533Z,7.10
2023-12-30T20:33:13.652Z,7.16
2023-12-30T20:35:58.571Z,7.21
2023-12-30T20:38:43.474Z,7.27
2023-12-30T20:41:28.370Z,7.34
2023-12-30T20:44:13.278Z,7.27
2023-12-30T20:46:58.231Z,7.25
2023-12-30T20:49:46.268Z,7.25
2023-12-30T20:52:31.644Z,7.35
2023-12-30T20:55:17.159Z,7.36
2023-12-30T20:58:02.220Z,7.35
2023-12-30T21:00:47.189Z,7.29
2023-12-30T21:03:32.350Z,7.38
2023-12-30T21:06:17.475Z,7.29
2023-12-30T21:09:02.317Z,7.28
2023-12-30T21:11:47.258Z,7.27
2023-12-30T21:14:32.499Z,7.17
2023-12-30T21:17:17.793Z,7.18
2023-12-30T21:20:02.633Z,7.18
2023-12-30T21:22:47.652Z,7.14
2023-12-30T21:25:33.210Z,7.17
2023-12-30T21:28:20.299Z,7.09
2023-12-30T21:31:06.594Z,7.12
2023-12-30T21:33:51.677Z,7.09
2023-12-30T21:36:38.132Z,7.06
2023-12-30T21:39:22.979Z,7.11
2023-12-30T21:42:08.177Z,7.18
2023-12-30T21:44:53.499Z,7.17
2023-12-30T21:47:38.437Z,7.27
2023-12-30T21:50:23.348Z,7.27
2023-12-30T21:53:08.810Z,7.32
2023-12-30T21:55:53.682Z,7.23
2023-12-30T21:58:38.653Z,7.25
2023-12-30T22:01:23.599Z,7.26
2023-12-30T22:04:09.014Z,7.25
2023-12-30T22:06:53.866Z,7.27
2023-12-30T22:09:38.803Z,7.18
2023-12-30T22:12:23.717Z,7.32
2023-12-30T22:15:08.762Z,7.31
2023-12-30T22:17:54.013Z,7.34
2023-12-30T22:20:38.837Z,7.38
2023-12-30T22:23:24.019Z,7.38
2023-12-30T22:26:08.833Z,7.37
2023-12-30T22:28:54.047Z,7.38
2023-12-30T22:31:42.491Z,7.26
2023-12-30T22:34:27.784Z,7.25
2023-12-30T22:37:12.709Z,7.30
2023-12-30T22:39:57.624Z,7.20
2023-12-30T22:42:42.546Z,7.19
2023-12-30T22:45:27.388Z,7.28
2023-12-30T22:48:12.326Z,7.17
2023-12-30T22:50:57.756Z,7.16
2023-12-30T22:53:42.521Z,7.17
2023-12-30T22:56:27.452Z,7.18
2023-12-30T22:59:15.022Z,7.16
2023-12-30T23:02:00.280Z,7.13
2023-12-30T23:04:45.812Z,7.10
2023-12-30T23:07:31.178Z,7.12
2023-12-30T23:10:16.286Z,7.09
2023-12-30T23:13:01.937Z,7.06
2023-12-30T23:15:47.409Z,7.12
2023-12-30T23:18:32.288Z,7.18
2023-12-30T23:21:16.976Z,7.18
2023-12-30T23:24:02.104Z,7.16
2023-12-30T23:26:46.840Z,7.25
2023-12-30T23:29:32.310Z,7.22
2023-12-30T23:32:17.246Z,7.22
2023-12-30T23:35:02.291Z,7.25
2023-12-30T23:37:47.328Z,7.25
2023-12-30T23:40:32.621Z,7.26
2023-12-30T23:43:18.214Z,7.27
2023-12-30T23:46:03.185Z,7.33
2023-12-30T23:48:48.199Z,7.41
2023-12-30T23:51:33.053Z,7.38
2023-12-30T23:54:18.008Z,7.45
2023-12-30T23:57:03.201Z,7.45
2023-12-30T23:59:48.452Z,7.51
